sensor_id;sensor_type;location;lat;lon;timestamp;temperature;humidity
67555;HTU21D;54385;53.516;49.456;2024-01-15T00:01:08;18.29;10.85
67555;HTU21D;54385;53.516;49.456;2024-01-15T00:03:35;18.28;10.83
67555;HTU21D;54385;53.516;49.456;2024-01-15T00:06:02;18.27;10.85
67555;HTU21D;54385;53.516;49.456;2024-01-15T00:08:29;18.26;10.85
67555;HTU21D;54385;53.516;49.456;2024-01-15T00:10:56;18.28;10.82
67555;HTU21D;54385;53.516;49.456;2024-01-15T00:13:23;18.26;10.83
67555;HTU21D;54385;53.516;49.456;2024-01-15T00:15:50;18.25;10.85
67555;HTU21D;54385;53.516;49.456;2024-01-15T00:18:17;18.25;10.82
67555;HTU21D;54385;53.516;49.456;2024-01-15T00:20:45;18.25;10.84
67555;HTU21D;54385;53.516;49.456;2024-01-15T00:23:12;18.25;10.82
67555;HTU21D;54385;53.516;49.456;2024-01-15T00:25:38;18.25;10.83
67555;HTU21D;54385;53.516;49.456;2024-01-15T00:28:05;18.24;10.84
67555;HTU21D;54385;53.516;49.456;2024-01-15T00:30:32;18.26;10.83
67555;HTU21D;54385;53.516;49.456;2024-01-15T00:32:59;18.26;10.82
67555;HTU21D;54385;53.516;49.456;2024-01-15T00:35:26;18.28;10.82
67555;HTU21D;54385;53.516;49.456;2024-01-15T00:37:53;18.28;10.81
67555;HTU21D;54385;53.516;49.456;2024-01-15T00:40:20;18.29;10.81
67555;HTU21D;54385;53.516;49.456;2024-01-15T00:42:47;18.29;10.79
67555;HTU21D;54385;53.516;49.456;2024-01-15T00:45:13;18.30;10.81
67555;HTU21D;54385;53.516;49.456;2024-01-15T00:47:46;18.30;10.79
67555;HTU21D;54385;53.516;49.456;2024-01-15T00:56:06;18.33;10.78
67555;HTU21D;54385;53.516;49.456;2024-01-15T00:58:39;18.33;10.78
67555;HTU21D;54385;53.516;49.456;2024-01-15T01:01:05;18.35;10.78
67555;HTU21D;54385;53.516;49.456;2024-01-15T01:03:32;18.32;10.79
67555;HTU21D;54385;53.516;49.456;2024-01-15T01:08:44;18.32;10.80
67555;HTU21D;54385;53.516;49.456;2024-01-15T01:11:15;18.30;10.81
67555;HTU21D;54385;53.516;49.456;2024-01-15T01:13:42;18.27;10.82
67555;HTU21D;54385;53.516;49.456;2024-01-15T01:16:09;18.26;10.85
67555;HTU21D;54385;53.516;49.456;2024-01-15T01:18:35;18.27;10.84
67555;HTU21D;54385;53.516;49.456;2024-01-15T01:21:02;18.26;10.85
67555;HTU21D;54385;53.516;49.456;2024-01-15T01:23:30;18.25;10.85
67555;HTU21D;54385;53.516;49.456;2024-01-15T01:26:00;18.26;10.85
67555;HTU21D;54385;53.516;49.456;2024-01-15T01:28:27;18.25;10.87
67555;HTU21D;54385;53.516;49.456;2024-01-15T01:30:54;18.26;10.88
67555;HTU21D;54385;53.516;49.456;2024-01-15T01:33:20;18.25;10.87
67555;HTU21D;54385;53.516;49.456;2024-01-15T01:36:10;18.25;10.86
67555;HTU21D;54385;53.516;49.456;2024-01-15T01:38:56;18.24;10.86
67555;HTU21D;54385;53.516;49.456;2024-01-15T01:41:23;18.25;10.89
67555;HTU21D;54385;53.516;49.456;2024-01-15T01:43:50;18.24;10.88
67555;HTU21D;54385;53.516;49.456;2024-01-15T01:46:19;18.22;10.89
67555;HTU21D;54385;53.516;49.456;2024-01-15T01:48:47;18.21;10.93
67555;HTU21D;54385;53.516;49.456;2024-01-15T01:51:19;18.18;10.94
67555;HTU21D;54385;53.516;49.456;2024-01-15T01:53:50;18.18;10.96
67555;HTU21D;54385;53.516;49.456;2024-01-15T01:56:18;18.15;10.96
67555;HTU21D;54385;53.516;49.456;2024-01-15T01:58:45;18.15;10.98
67555;HTU21D;54385;53.516;49.456;2024-01-15T02:01:12;18.12;11.00
67555;HTU21D;54385;53.516;49.456;2024-01-15T02:03:58;18.09;11.04
67555;HTU21D;54385;53.516;49.456;2024-01-15T02:09:11;18.08;11.08
67555;HTU21D;54385;53.516;49.456;2024-01-15T02:11:43;18.09;11.04
67555;HTU21D;54385;53.516;49.456;2024-01-15T02:14:14;18.05;11.06
67555;HTU21D;54385;53.516;49.456;2024-01-15T02:16:41;18.07;11.06
67555;HTU21D;54385;53.516;49.456;2024-01-15T02:19:15;18.06;11.07
67555;HTU21D;54385;53.516;49.456;2024-01-15T02:21:42;18.05;11.08
67555;HTU21D;54385;53.516;49.456;2024-01-15T02:24:09;18.03;11.09
67555;HTU21D;54385;53.516;49.456;2024-01-15T02:26:36;18.05;11.07
67555;HTU21D;54385;53.516;49.456;2024-01-15T02:29:09;18.02;11.09
67555;HTU21D;54385;53.516;49.456;2024-01-15T02:31:36;17.99;11.15
67555;HTU21D;54385;53.516;49.456;2024-01-15T02:34:03;17.98;11.14
67555;HTU21D;54385;53.516;49.456;2024-01-15T02:36:30;17.98;11.13
67555;HTU21D;54385;53.516;49.456;2024-01-15T02:41:42;17.97;11.13
67555;HTU21D;54385;53.516;49.456;2024-01-15T02:44:12;17.99;11.12
67555;HTU21D;54385;53.516;49.456;2024-01-15T02:46:42;18.00;11.12
67555;HTU21D;54385;53.516;49.456;2024-01-15T02:51:53;17.98;11.13
67555;HTU21D;54385;53.516;49.456;2024-01-15T02:54:20;17.97;11.14
67555;HTU21D;54385;53.516;49.456;2024-01-15T02:56:47;17.94;11.16
67555;HTU21D;54385;53.516;49.456;2024-01-15T02:59:32;17.93;11.17
67555;HTU21D;54385;53.516;49.456;2024-01-15T03:01:59;17.94;11.17
67555;HTU21D;54385;53.516;49.456;2024-01-15T03:04:25;17.92;11.19
67555;HTU21D;54385;53.516;49.456;2024-01-15T03:06:52;17.90;11.19
67555;HTU21D;54385;53.516;49.456;2024-01-15T03:09:19;17.91;11.18
67555;HTU21D;54385;53.516;49.456;2024-01-15T03:14:30;17.91;11.20
67555;HTU21D;54385;53.516;49.456;2024-01-15T03:17:00;17.92;11.19
67555;HTU21D;54385;53.516;49.456;2024-01-15T03:19:27;17.92;11.37
67555;HTU21D;54385;53.516;49.456;2024-01-15T03:21:54;17.94;11.97
67555;HTU21D;54385;53.516;49.456;2024-01-15T03:24:40;18.00;12.65
67555;HTU21D;54385;53.516;49.456;2024-01-15T03:27:25;18.06;12.65
67555;HTU21D;54385;53.516;49.456;2024-01-15T03:29:52;18.10;12.84
67555;HTU21D;54385;53.516;49.456;2024-01-15T03:32:18;18.15;13.03
67555;HTU21D;54385;53.516;49.456;2024-01-15T03:37:47;18.23;13.68
67555;HTU21D;54385;53.516;49.456;2024-01-15T03:40:14;18.25;13.58
67555;HTU21D;54385;53.516;49.456;2024-01-15T03:42:41;18.27;13.90
67555;HTU21D;54385;53.516;49.456;2024-01-15T03:45:08;18.29;15.21
67555;HTU21D;54385;53.516;49.456;2024-01-15T03:47:38;18.33;15.84
67555;HTU21D;54385;53.516;49.456;2024-01-15T03:50:16;18.38;15.60
67555;HTU21D;54385;53.516;49.456;2024-01-15T03:52:44;18.41;15.90
67555;HTU21D;54385;53.516;49.456;2024-01-15T03:55:11;18.43;16.02
67555;HTU21D;54385;53.516;49.456;2024-01-15T03:57:41;18.48;16.12
67555;HTU21D;54385;53.516;49.456;2024-01-15T04:00:09;18.50;16.20
67555;HTU21D;54385;53.516;49.456;2024-01-15T04:02:39;18.53;16.28
67555;HTU21D;54385;53.516;49.456;2024-01-15T04:05:06;18.56;16.37
67555;HTU21D;54385;53.516;49.456;2024-01-15T04:07:34;18.59;16.51
67555;HTU21D;54385;53.516;49.456;2024-01-15T04:10:08;18.63;17.43
67555;HTU21D;54385;53.516;49.456;2024-01-15T04:12:36;18.68;17.75
67555;HTU21D;54385;53.516;49.456;2024-01-15T04:15:06;18.71;17.99
67555;HTU21D;54385;53.516;49.456;2024-01-15T04:17:42;18.77;18.57
67555;HTU21D;54385;53.516;49.456;2024-01-15T04:20:19;18.80;18.85
67555;HTU21D;54385;53.516;49.456;2024-01-15T04:22:46;18.82;19.00
67555;HTU21D;54385;53.516;49.456;2024-01-15T04:25:13;18.85;19.34
67555;HTU21D;54385;53.516;49.456;2024-01-15T04:27:41;18.88;19.44
67555;HTU21D;54385;53.516;49.456;2024-01-15T04:30:16;18.92;19.63
67555;HTU21D;54385;53.516;49.456;2024-01-15T04:32:44;18.94;19.79
67555;HTU21D;54385;53.516;49.456;2024-01-15T04:35:33;18.97;20.50
67555;HTU21D;54385;53.516;49.456;2024-01-15T04:38:04;18.97;19.76
67555;HTU21D;54385;53.516;49.456;2024-01-15T04:40:31;18.98;19.92
67555;HTU21D;54385;53.516;49.456;2024-01-15T04:42:58;18.99;20.30
67555;HTU21D;54385;53.516;49.456;2024-01-15T04:45:28;19.01;20.76
67555;HTU21D;54385;53.516;49.456;2024-01-15T04:48:19;19.03;20.55
67555;HTU21D;54385;53.516;49.456;2024-01-15T04:50:53;19.07;20.69
67555;HTU21D;54385;53.516;49.456;2024-01-15T04:53:21;19.07;20.86
67555;HTU21D;54385;53.516;49.456;2024-01-15T04:56:04;19.09;20.93
67555;HTU21D;54385;53.516;49.456;2024-01-15T05:02:23;19.16;21.07
67555;HTU21D;54385;53.516;49.456;2024-01-15T05:05:32;19.17;20.66
67555;HTU21D;54385;53.516;49.456;2024-01-15T05:08:08;19.21;20.01
67555;HTU21D;54385;53.516;49.456;2024-01-15T05:10:47;19.23;19.71
67555;HTU21D;54385;53.516;49.456;2024-01-15T05:13:21;19.26;19.44
67555;HTU21D;54385;53.516;49.456;2024-01-15T05:16:06;19.28;19.11
67555;HTU21D;54385;53.516;49.456;2024-01-15T05:22:11;19.36;18.54
67555;HTU21D;54385;53.516;49.456;2024-01-15T05:25:57;19.40;18.19
67555;HTU21D;54385;53.516;49.456;2024-01-15T05:29:32;19.42;17.99
67555;HTU21D;54385;53.516;49.456;2024-01-15T05:32:39;19.42;17.84
67555;HTU21D;54385;53.516;49.456;2024-01-15T05:35:12;19.45;17.76
67555;HTU21D;54385;53.516;49.456;2024-01-15T05:37:46;19.46;17.61
67555;HTU21D;54385;53.516;49.456;2024-01-15T05:40:13;19.48;17.52
67555;HTU21D;54385;53.516;49.456;2024-01-15T05:42:59;19.47;17.38
67555;HTU21D;54385;53.516;49.456;2024-01-15T05:45:46;19.48;17.23
67555;HTU21D;54385;53.516;49.456;2024-01-15T05:48:16;19.48;17.17
67555;HTU21D;54385;53.516;49.456;2024-01-15T05:51:07;19.50;16.99
67555;HTU21D;54385;53.516;49.456;2024-01-15T05:53:41;19.52;16.93
67555;HTU21D;54385;53.516;49.456;2024-01-15T05:56:10;19.55;16.83
67555;HTU21D;54385;53.516;49.456;2024-01-15T05:58:37;19.57;16.71
67555;HTU21D;54385;53.516;49.456;2024-01-15T06:01:06;19.59;16.54
67555;HTU21D;54385;53.516;49.456;2024-01-15T06:03:35;19.61;16.35
67555;HTU21D;54385;53.516;49.456;2024-01-15T06:06:23;19.62;16.32
67555;HTU21D;54385;53.516;49.456;2024-01-15T06:09:01;19.65;16.22
67555;HTU21D;54385;53.516;49.456;2024-01-15T06:11:36;19.67;16.05
67555;HTU21D;54385;53.516;49.456;2024-01-15T06:14:16;19.68;15.88
67555;HTU21D;54385;53.516;49.456;2024-01-15T06:16:43;19.68;15.95
67555;HTU21D;54385;53.516;49.456;2024-01-15T06:19:10;19.70;15.90
67555;HTU21D;54385;53.516;49.456;2024-01-15T06:22:11;19.72;15.88
67555;HTU21D;54385;53.516;49.456;2024-01-15T06:24:57;19.73;15.84
67555;HTU21D;54385;53.516;49.456;2024-01-15T06:27:33;19.79;15.88
67555;HTU21D;54385;53.516;49.456;2024-01-15T06:30:24;19.84;15.89
67555;HTU21D;54385;53.516;49.456;2024-01-15T06:33:06;19.88;15.87
67555;HTU21D;54385;53.516;49.456;2024-01-15T06:36:01;19.95;15.84
67555;HTU21D;54385;53.516;49.456;2024-01-15T06:38:30;19.98;15.81
67555;HTU21D;54385;53.516;49.456;2024-01-15T06:41:06;20.01;15.89
67555;HTU21D;54385;53.516;49.456;2024-01-15T06:43:41;20.05;16.09
67555;HTU21D;54385;53.516;49.456;2024-01-15T06:46:24;20.06;16.19
67555;HTU21D;54385;53.516;49.456;2024-01-15T06:49:18;20.09;16.15
67555;HTU21D;54385;53.516;49.456;2024-01-15T06:52:09;20.09;16.41
67555;HTU21D;54385;53.516;49.456;2024-01-15T06:54:44;20.10;16.67
67555;HTU21D;54385;53.516;49.456;2024-01-15T06:57:34;20.11;16.43
67555;HTU21D;54385;53.516;49.456;2024-01-15T07:00:01;20.12;16.43
67555;HTU21D;54385;53.516;49.456;2024-01-15T07:02:36;20.14;16.41
67555;HTU21D;54385;53.516;49.456;2024-01-15T07:05:11;20.17;16.35
67555;HTU21D;54385;53.516;49.456;2024-01-15T07:07:38;20.18;16.21
67555;HTU21D;54385;53.516;49.456;2024-01-15T07:10:05;20.21;16.10
67555;HTU21D;54385;53.516;49.456;2024-01-15T07:12:32;20.24;15.98
67555;HTU21D;54385;53.516;49.456;2024-01-15T07:15:03;20.24;15.86
67555;HTU21D;54385;53.516;49.456;2024-01-15T07:17:37;20.24;15.75
67555;HTU21D;54385;53.516;49.456;2024-01-15T07:20:07;20.25;15.97
67555;HTU21D;54385;53.516;49.456;2024-01-15T07:22:36;20.21;16.17
67555;HTU21D;54385;53.516;49.456;2024-01-15T07:28:52;20.24;16.44
67555;HTU21D;54385;53.516;49.456;2024-01-15T07:31:31;20.26;16.12
67555;HTU21D;54385;53.516;49.456;2024-01-15T07:34:15;20.30;15.95
67555;HTU21D;54385;53.516;49.456;2024-01-15T07:37:20;20.33;15.68
67555;HTU21D;54385;53.516;49.456;2024-01-15T07:39:54;20.36;15.62
67555;HTU21D;54385;53.516;49.456;2024-01-15T07:42:40;20.39;15.45
67555;HTU21D;54385;53.516;49.456;2024-01-15T07:45:37;20.41;15.46
67555;HTU21D;54385;53.516;49.456;2024-01-15T07:48:10;20.44;15.32
67555;HTU21D;54385;53.516;49.456;2024-01-15T07:51:03;20.48;15.09
67555;HTU21D;54385;53.516;49.456;2024-01-15T07:53:37;20.54;15.07
67555;HTU21D;54385;53.516;49.456;2024-01-15T07:56:07;20.59;15.00
67555;HTU21D;54385;53.516;49.456;2024-01-15T07:58:37;20.63;14.88
67555;HTU21D;54385;53.516;49.456;2024-01-15T08:01:37;20.65;14.81
67555;HTU21D;54385;53.516;49.456;2024-01-15T08:04:25;20.66;15.00
67555;HTU21D;54385;53.516;49.456;2024-01-15T08:06:54;20.69;15.31
67555;HTU21D;54385;53.516;49.456;2024-01-15T08:09:50;20.74;16.11
67555;HTU21D;54385;53.516;49.456;2024-01-15T08:13:41;20.85;16.26
67555;HTU21D;54385;53.516;49.456;2024-01-15T08:16:32;20.93;15.98
67555;HTU21D;54385;53.516;49.456;2024-01-15T08:19:26;20.98;16.04
67555;HTU21D;54385;53.516;49.456;2024-01-15T08:22:13;21.04;16.09
67555;HTU21D;54385;53.516;49.456;2024-01-15T08:24:44;21.09;15.82
67555;HTU21D;54385;53.516;49.456;2024-01-15T08:27:17;21.10;15.80
67555;HTU21D;54385;53.516;49.456;2024-01-15T08:32:52;21.11;15.82
67555;HTU21D;54385;53.516;49.456;2024-01-15T08:35:27;21.13;15.71
67555;HTU21D;54385;53.516;49.456;2024-01-15T08:40:43;21.20;15.53
67555;HTU21D;54385;53.516;49.456;2024-01-15T08:43:09;21.24;15.44
67555;HTU21D;54385;53.516;49.456;2024-01-15T08:45:36;21.27;15.40
67555;HTU21D;54385;53.516;49.456;2024-01-15T08:48:09;21.28;15.54
67555;HTU21D;54385;53.516;49.456;2024-01-15T08:50:46;21.29;15.52
67555;HTU21D;54385;53.516;49.456;2024-01-15T08:53:23;21.28;15.68
67555;HTU21D;54385;53.516;49.456;2024-01-15T08:55:50;21.29;15.71
67555;HTU21D;54385;53.516;49.456;2024-01-15T08:58:28;21.28;15.88
67555;HTU21D;54385;53.516;49.456;2024-01-15T09:04:00;21.28;15.84
67555;HTU21D;54385;53.516;49.456;2024-01-15T09:06:53;21.31;15.78
67555;HTU21D;54385;53.516;49.456;2024-01-15T09:09:20;21.34;15.76
67555;HTU21D;54385;53.516;49.456;2024-01-15T09:11:51;21.33;15.74
67555;HTU21D;54385;53.516;49.456;2024-01-15T09:14:18;21.34;15.71
67555;HTU21D;54385;53.516;49.456;2024-01-15T09:16:55;21.38;15.67
67555;HTU21D;54385;53.516;49.456;2024-01-15T09:19:26;21.37;15.60
67555;HTU21D;54385;53.516;49.456;2024-01-15T09:21:59;21.36;15.57
67555;HTU21D;54385;53.516;49.456;2024-01-15T09:24:44;21.36;15.43
67555;HTU21D;54385;53.516;49.456;2024-01-15T09:27:35;21.34;15.32
67555;HTU21D;54385;53.516;49.456;2024-01-15T09:30:08;21.30;15.18
67555;HTU21D;54385;53.516;49.456;2024-01-15T09:33:02;21.28;15.29
67555;HTU21D;54385;53.516;49.456;2024-01-15T09:35:40;21.25;15.11
67555;HTU21D;54385;53.516;49.456;2024-01-15T09:38:51;21.19;15.10
67555;HTU21D;54385;53.516;49.456;2024-01-15T09:41:44;21.18;14.71
67555;HTU21D;54385;53.516;49.456;2024-01-15T09:45:41;21.11;14.42
67555;HTU21D;54385;53.516;49.456;2024-01-15T09:48:34;21.09;14.52
67555;HTU21D;54385;53.516;49.456;2024-01-15T09:51:33;21.09;14.71
67555;HTU21D;54385;53.516;49.456;2024-01-15T09:57:00;21.06;14.60
67555;HTU21D;54385;53.516;49.456;2024-01-15T09:59:40;21.07;14.46
67555;HTU21D;54385;53.516;49.456;2024-01-15T10:02:23;21.06;14.36
67555;HTU21D;54385;53.516;49.456;2024-01-15T10:04:50;21.04;14.30
67555;HTU21D;54385;53.516;49.456;2024-01-15T10:07:19;21.02;14.26
67555;HTU21D;54385;53.516;49.456;2024-01-15T10:09:49;21.03;14.14
67555;HTU21D;54385;53.516;49.456;2024-01-15T10:12:21;21.01;14.10
67555;HTU21D;54385;53.516;49.456;2024-01-15T10:14:56;21.00;14.04
67555;HTU21D;54385;53.516;49.456;2024-01-15T10:17:30;20.98;14.17
67555;HTU21D;54385;53.516;49.456;2024-01-15T10:20:20;20.98;14.29
67555;HTU21D;54385;53.516;49.456;2024-01-15T10:23:05;20.91;14.37
67555;HTU21D;54385;53.516;49.456;2024-01-15T10:25:48;20.87;14.46
67555;HTU21D;54385;53.516;49.456;2024-01-15T10:28:19;20.81;14.48
67555;HTU21D;54385;53.516;49.456;2024-01-15T10:31:13;20.75;14.55
67555;HTU21D;54385;53.516;49.456;2024-01-15T10:33:50;20.74;14.53
67555;HTU21D;54385;53.516;49.456;2024-01-15T10:36:27;20.74;14.55
67555;HTU21D;54385;53.516;49.456;2024-01-15T10:39:29;20.76;14.60
67555;HTU21D;54385;53.516;49.456;2024-01-15T10:42:06;20.74;14.61
67555;HTU21D;54385;53.516;49.456;2024-01-15T10:44:45;20.76;14.62
67555;HTU21D;54385;53.516;49.456;2024-01-15T10:47:24;20.75;14.63
67555;HTU21D;54385;53.516;49.456;2024-01-15T10:49:51;20.71;14.66
67555;HTU21D;54385;53.516;49.456;2024-01-15T10:52:28;20.71;14.71
67555;HTU21D;54385;53.516;49.456;2024-01-15T10:54:57;20.66;14.74
67555;HTU21D;54385;53.516;49.456;2024-01-15T10:57:29;20.62;14.78
67555;HTU21D;54385;53.516;49.456;2024-01-15T11:00:19;20.59;14.86
67555;HTU21D;54385;53.516;49.456;2024-01-15T11:03:14;20.54;14.85
67555;HTU21D;54385;53.516;49.456;2024-01-15T11:05:56;20.50;14.87
67555;HTU21D;54385;53.516;49.456;2024-01-15T11:08:44;20.48;14.92
67555;HTU21D;54385;53.516;49.456;2024-01-15T11:14:50;20.40;15.00
67555;HTU21D;54385;53.516;49.456;2024-01-15T11:17:19;20.39;14.96
67555;HTU21D;54385;53.516;49.456;2024-01-15T11:20:19;20.36;14.96
67555;HTU21D;54385;53.516;49.456;2024-01-15T11:23:06;20.34;14.96
67555;HTU21D;54385;53.516;49.456;2024-01-15T11:29:32;20.27;15.03
67555;HTU21D;54385;53.516;49.456;2024-01-15T11:32:07;20.25;15.02
67555;HTU21D;54385;53.516;49.456;2024-01-15T11:38:39;20.15;15.07
67555;HTU21D;54385;53.516;49.456;2024-01-15T11:41:37;20.13;15.09
67555;HTU21D;54385;53.516;49.456;2024-01-15T11:44:09;20.11;15.08
67555;HTU21D;54385;53.516;49.456;2024-01-15T11:46:53;20.09;15.12
67555;HTU21D;54385;53.516;49.456;2024-01-15T11:52:39;20.02;15.13
67555;HTU21D;54385;53.516;49.456;2024-01-15T11:55:35;19.99;15.15
67555;HTU21D;54385;53.516;49.456;2024-01-15T11:58:21;19.96;15.16
67555;HTU21D;54385;53.516;49.456;2024-01-15T12:01:10;19.91;15.20
67555;HTU21D;54385;53.516;49.456;2024-01-15T12:04:06;19.90;15.19
67555;HTU21D;54385;53.516;49.456;2024-01-15T12:06:40;19.89;15.16
67555;HTU21D;54385;53.516;49.456;2024-01-15T12:09:15;19.87;15.18
67555;HTU21D;54385;53.516;49.456;2024-01-15T12:17:46;19.84;15.16
67555;HTU21D;54385;53.516;49.456;2024-01-15T12:20:19;19.83;15.16
67555;HTU21D;54385;53.516;49.456;2024-01-15T12:22:56;19.80;15.15
67555;HTU21D;54385;53.516;49.456;2024-01-15T12:25:23;19.79;15.15
67555;HTU21D;54385;53.516;49.456;2024-01-15T12:27:51;19.77;15.16
67555;HTU21D;54385;53.516;49.456;2024-01-15T12:30:25;19.75;15.16
67555;HTU21D;54385;53.516;49.456;2024-01-15T12:33:07;19.73;15.17
67555;HTU21D;54385;53.516;49.456;2024-01-15T12:36:01;19.72;15.18
67555;HTU21D;54385;53.516;49.456;2024-01-15T12:38:59;19.70;15.17
67555;HTU21D;54385;53.516;49.456;2024-01-15T12:41:29;19.66;15.18
67555;HTU21D;54385;53.516;49.456;2024-01-15T12:44:04;19.65;15.19
67555;HTU21D;54385;53.516;49.456;2024-01-15T12:46:31;19.63;15.17
67555;HTU21D;54385;53.516;49.456;2024-01-15T12:49:12;19.58;15.20
67555;HTU21D;54385;53.516;49.456;2024-01-15T12:54:44;19.54;15.22
67555;HTU21D;54385;53.516;49.456;2024-01-15T12:57:16;19.53;15.21
67555;HTU21D;54385;53.516;49.456;2024-01-15T13:00:05;19.48;15.26
67555;HTU21D;54385;53.516;49.456;2024-01-15T13:02:40;19.45;15.26
67555;HTU21D;54385;53.516;49.456;2024-01-15T13:05:11;19.44;15.26
67555;HTU21D;54385;53.516;49.456;2024-01-15T13:10:59;19.40;15.29
67555;HTU21D;54385;53.516;49.456;2024-01-15T13:13:31;19.38;15.29
67555;HTU21D;54385;53.516;49.456;2024-01-15T13:16:08;19.36;15.30
67555;HTU21D;54385;53.516;49.456;2024-01-15T13:18:35;19.33;15.29
67555;HTU21D;54385;53.516;49.456;2024-01-15T13:21:02;19.33;15.29
67555;HTU21D;54385;53.516;49.456;2024-01-15T13:23:29;19.30;15.29
67555;HTU21D;54385;53.516;49.456;2024-01-15T13:26:20;19.31;15.30
67555;HTU21D;54385;53.516;49.456;2024-01-15T13:29:10;19.32;15.25
67555;HTU21D;54385;53.516;49.456;2024-01-15T13:31:42;19.31;15.24
67555;HTU21D;54385;53.516;49.456;2024-01-15T13:34:31;19.31;15.25
67555;HTU21D;54385;53.516;49.456;2024-01-15T13:37:17;19.31;15.22
67555;HTU21D;54385;53.516;49.456;2024-01-15T13:39:56;19.31;15.21
67555;HTU21D;54385;53.516;49.456;2024-01-15T13:42:47;19.30;15.20
67555;HTU21D;54385;53.516;49.456;2024-01-15T13:45:20;19.29;15.21
67555;HTU21D;54385;53.516;49.456;2024-01-15T13:47:46;19.28;15.21
67555;HTU21D;54385;53.516;49.456;2024-01-15T13:50:21;19.30;15.16
67555;HTU21D;54385;53.516;49.456;2024-01-15T13:53:10;19.30;15.14
67555;HTU21D;54385;53.516;49.456;2024-01-15T13:55:37;19.30;15.16
67555;HTU21D;54385;53.516;49.456;2024-01-15T13:58:06;19.30;15.13
67555;HTU21D;54385;53.516;49.456;2024-01-15T14:00:33;19.32;15.12
67555;HTU21D;54385;53.516;49.456;2024-01-15T14:03:03;19.33;15.10
67555;HTU21D;54385;53.516;49.456;2024-01-15T14:11:13;19.30;15.06
67555;HTU21D;54385;53.516;49.456;2024-01-15T14:13:41;19.30;15.06
67555;HTU21D;54385;53.516;49.456;2024-01-15T14:16:11;19.32;15.04
67555;HTU21D;54385;53.516;49.456;2024-01-15T14:18:40;19.31;15.03
67555;HTU21D;54385;53.516;49.456;2024-01-15T14:21:29;19.33;15.01
67555;HTU21D;54385;53.516;49.456;2024-01-15T14:23:59;19.33;14.99
67555;HTU21D;54385;53.516;49.456;2024-01-15T14:26:28;19.33;15.00
67555;HTU21D;54385;53.516;49.456;2024-01-15T14:29:07;19.32;15.00
67555;HTU21D;54385;53.516;49.456;2024-01-15T14:31:33;19.36;14.97
67555;HTU21D;54385;53.516;49.456;2024-01-15T14:34:03;19.35;14.94
67555;HTU21D;54385;53.516;49.456;2024-01-15T14:36:52;19.35;14.93
67555;HTU21D;54385;53.516;49.456;2024-01-15T14:39:24;19.37;14.92
67555;HTU21D;54385;53.516;49.456;2024-01-15T14:41:52;19.37;14.90
67555;HTU21D;54385;53.516;49.456;2024-01-15T14:44:22;19.38;14.89
67555;HTU21D;54385;53.516;49.456;2024-01-15T14:46:52;19.39;14.87
67555;HTU21D;54385;53.516;49.456;2024-01-15T14:49:21;19.39;14.86
67555;HTU21D;54385;53.516;49.456;2024-01-15T14:51:48;19.40;14.86
67555;HTU21D;54385;53.516;49.456;2024-01-15T14:54:16;19.41;14.81
67555;HTU21D;54385;53.516;49.456;2024-01-15T14:57:03;19.40;14.77
67555;HTU21D;54385;53.516;49.456;2024-01-15T14:59:30;19.39;14.81
67555;HTU21D;54385;53.516;49.456;2024-01-15T15:02:16;19.41;14.77
67555;HTU21D;54385;53.516;49.456;2024-01-15T15:04:47;19.40;14.78
67555;HTU21D;54385;53.516;49.456;2024-01-15T15:07:14;19.40;14.79
67555;HTU21D;54385;53.516;49.456;2024-01-15T15:09:41;19.41;14.77
67555;HTU21D;54385;53.516;49.456;2024-01-15T15:12:17;19.42;14.76
67555;HTU21D;54385;53.516;49.456;2024-01-15T15:14:44;19.44;14.73
67555;HTU21D;54385;53.516;49.456;2024-01-15T15:17:30;19.43;14.71
67555;HTU21D;54385;53.516;49.456;2024-01-15T15:19:57;19.44;14.68
67555;HTU21D;54385;53.516;49.456;2024-01-15T15:22:28;19.47;14.65
67555;HTU21D;54385;53.516;49.456;2024-01-15T15:25:01;19.48;14.63
67555;HTU21D;54385;53.516;49.456;2024-01-15T15:27:28;19.47;14.63
67555;HTU21D;54385;53.516;49.456;2024-01-15T15:30:03;19.47;14.62
67555;HTU21D;54385;53.516;49.456;2024-01-15T15:32:33;19.46;14.64
67555;HTU21D;54385;53.516;49.456;2024-01-15T15:35:07;19.45;14.64
67555;HTU21D;54385;53.516;49.456;2024-01-15T15:37:35;19.46;14.62
67555;HTU21D;54385;53.516;49.456;2024-01-15T15:40:03;19.47;14.61
67555;HTU21D;54385;53.516;49.456;2024-01-15T15:42:30;19.46;14.61
67555;HTU21D;54385;53.516;49.456;2024-01-15T15:45:03;19.45;14.59
67555;HTU21D;54385;53.516;49.456;2024-01-15T15:47:30;19.45;14.61
67555;HTU21D;54385;53.516;49.456;2024-01-15T15:49:56;19.45;14.61
67555;HTU21D;54385;53.516;49.456;2024-01-15T15:52:23;19.47;14.59
67555;HTU21D;54385;53.516;49.456;2024-01-15T15:54:50;19.47;14.58
67555;HTU21D;54385;53.516;49.456;2024-01-15T15:57:16;19.52;14.55
67555;HTU21D;54385;53.516;49.456;2024-01-15T15:59:46;19.50;14.56
67555;HTU21D;54385;53.516;49.456;2024-01-15T16:02:12;19.50;14.55
67555;HTU21D;54385;53.516;49.456;2024-01-15T16:04:42;19.50;14.52
67555;HTU21D;54385;53.516;49.456;2024-01-15T16:07:32;19.51;14.53
67555;HTU21D;54385;53.516;49.456;2024-01-15T16:09:58;19.50;14.55
67555;HTU21D;54385;53.516;49.456;2024-01-15T16:12:34;19.51;14.51
67555;HTU21D;54385;53.516;49.456;2024-01-15T16:15:21;19.48;14.49
67555;HTU21D;54385;53.516;49.456;2024-01-15T16:18:17;19.50;14.51
67555;HTU21D;54385;53.516;49.456;2024-01-15T16:20:49;19.50;14.52
67555;HTU21D;54385;53.516;49.456;2024-01-15T16:23:16;19.51;14.49
67555;HTU21D;54385;53.516;49.456;2024-01-15T16:29:03;19.51;14.48
67555;HTU21D;54385;53.516;49.456;2024-01-15T16:31:30;19.51;14.48
67555;HTU21D;54385;53.516;49.456;2024-01-15T16:33:58;19.51;14.49
67555;HTU21D;54385;53.516;49.456;2024-01-15T16:36:31;19.51;14.46
67555;HTU21D;54385;53.516;49.456;2024-01-15T16:38:58;19.52;14.48
67555;HTU21D;54385;53.516;49.456;2024-01-15T16:44:44;19.50;14.46
67555;HTU21D;54385;53.516;49.456;2024-01-15T16:47:36;19.50;14.46
67555;HTU21D;54385;53.516;49.456;2024-01-15T16:50:04;19.48;14.49
67555;HTU21D;54385;53.516;49.456;2024-01-15T16:52:35;19.47;14.51
67555;HTU21D;54385;53.516;49.456;2024-01-15T16:57:54;19.46;14.52
67555;HTU21D;54385;53.516;49.456;2024-01-15T17:00:25;19.45;14.52
67555;HTU21D;54385;53.516;49.456;2024-01-15T17:02:53;19.46;14.52
67555;HTU21D;54385;53.516;49.456;2024-01-15T17:05:23;19.46;14.51
67555;HTU21D;54385;53.516;49.456;2024-01-15T17:07:53;19.46;14.49
67555;HTU21D;54385;53.516;49.456;2024-01-15T17:10:25;19.45;14.50
67555;HTU21D;54385;53.516;49.456;2024-01-15T17:15:53;19.45;14.49
67555;HTU21D;54385;53.516;49.456;2024-01-15T17:18:24;19.46;14.49
67555;HTU21D;54385;53.516;49.456;2024-01-15T17:20:51;19.46;14.48
67555;HTU21D;54385;53.516;49.456;2024-01-15T17:23:22;19.47;14.45